Time;durP1;ratioP1;P1;durP2;ratioP2;P2;SDS_P1;SDS_P2;PMS_P1;PMS_P2;Temp;Humidity;BMP_temperature;BMP_pressure;BME280_temperature;BME280_humidity;BME280_pressure;Samples;Min_cycle;Max_cycle;Signal;HPM_P1;HPM_P2
2021/09/03 00:01:28;;;;;;;37.53;20.80;;;13.70;99.90;;;;;;4989097;28;20034;-60
2021/09/03 00:03:54;;;;;;;32.95;19.50;;;13.70;99.90;;;;;;4990796;28;20034;-60
2021/09/03 00:06:19;;;;;;;33.78;20.15;;;13.70;99.90;;;;;;4989133;28;20474;-60
2021/09/03 00:08:45;;;;;;;29.90;18.77;;;13.70;99.90;;;;;;4988575;28;20137;-60
2021/09/03 00:11:11;;;;;;;33.60;19.05;;;13.70;99.90;;;;;;4986417;28;20030;-60
2021/09/03 00:13:37;;;;;;;36.03;19.42;;;13.60;99.90;;;;;;4990327;28;20030;-61
2021/09/03 00:16:03;;;;;;;28.35;18.67;;;13.60;99.90;;;;;;4988371;28;20041;-60
2021/09/03 00:18:29;;;;;;;32.25;19.67;;;13.50;99.90;;;;;;4989892;28;20462;-60
2021/09/03 00:20:54;;;;;;;31.33;19.48;;;13.50;99.90;;;;;;4991760;28;20048;-60
2021/09/03 00:23:20;;;;;;;31.95;19.05;;;13.40;99.90;;;;;;4986616;28;20027;-59
2021/09/03 00:25:46;;;;;;;27.80;18.23;;;13.50;99.90;;;;;;4986840;28;20109;-59
2021/09/03 00:28:11;;;;;;;32.95;18.58;;;13.40;99.90;;;;;;4970909;28;20057;-63
2021/09/03 00:30:37;;;;;;;29.88;16.98;;;13.50;99.90;;;;;;4988404;28;20045;-60
2021/09/03 00:33:03;;;;;;;28.67;16.63;;;13.50;99.90;;;;;;4988386;28;20030;-60
2021/09/03 00:35:28;;;;;;;27.35;16.73;;;13.50;99.90;;;;;;4987985;28;20034;-60
2021/09/03 00:37:54;;;;;;;26.45;16.95;;;13.50;99.90;;;;;;4987294;28;20450;-61
2021/09/03 00:40:19;;;;;;;26.25;17.05;;;13.50;99.90;;;;;;4988249;28;20481;-61
2021/09/03 00:42:45;;;;;;;22.40;15.50;;;13.50;99.90;;;;;;4988233;28;20105;-60
2021/09/03 00:45:11;;;;;;;29.27;18.42;;;13.50;99.90;;;;;;4984034;28;20121;-60
2021/09/03 00:47:36;;;;;;;30.25;18.83;;;13.40;99.90;;;;;;4988528;28;20023;-61
2021/09/03 00:50:04;;;;;;;28.95;18.17;;;13.40;99.90;;;;;;4988232;28;20493;-61
2021/09/03 00:52:29;;;;;;;27.58;17.08;;;13.30;99.90;;;;;;4988119;28;20500;-61
2021/09/03 00:54:58;;;;;;;29.77;17.27;;;13.20;99.90;;;;;;4985838;28;20042;-62
2021/09/03 00:57:25;;;;;;;29.15;17.70;;;13.20;99.90;;;;;;4989239;28;20023;-62
2021/09/03 00:59:53;;;;;;;25.80;17.08;;;13.20;99.90;;;;;;4987469;28;20026;-61
2021/09/03 01:02:23;;;;;;;30.88;18.50;;;13.20;99.90;;;;;;4983710;28;20109;-60
2021/09/03 01:04:49;;;;;;;27.88;17.27;;;13.10;99.90;;;;;;4987348;28;20031;-61
2021/09/03 01:07:16;;;;;;;26.60;17.55;;;13.20;99.90;;;;;;4989283;28;20026;-61
2021/09/03 01:09:41;;;;;;;25.92;17.48;;;13.10;99.90;;;;;;4988027;28;20658;-61
2021/09/03 01:12:07;;;;;;;31.88;18.88;;;13.10;99.90;;;;;;4988123;28;20031;-61
2021/09/03 01:14:32;;;;;;;32.33;18.95;;;13.00;99.90;;;;;;4986340;28;20482;-62
2021/09/03 01:16:58;;;;;;;28.70;18.60;;;13.00;99.90;;;;;;4988777;28;20038;-61
2021/09/03 01:19:24;;;;;;;27.23;18.27;;;13.00;99.90;;;;;;4988885;28;20077;-61
2021/09/03 01:21:51;;;;;;;27.50;17.58;;;13.00;99.90;;;;;;4984191;28;20483;-61
2021/09/03 01:24:18;;;;;;;27.90;17.67;;;13.10;99.90;;;;;;4985664;28;20118;-61
2021/09/03 01:26:44;;;;;;;27.88;16.83;;;13.10;99.90;;;;;;4986444;28;20117;-61
2021/09/03 01:29:10;;;;;;;28.17;16.65;;;13.10;99.90;;;;;;4989241;28;20534;-61
2021/09/03 01:31:35;;;;;;;30.88;15.73;;;13.10;99.90;;;;;;4988495;28;20113;-61
2021/09/03 01:34:01;;;;;;;27.77;15.35;;;13.10;99.90;;;;;;4985156;28;20114;-61
2021/09/03 01:36:29;;;;;;;28.27;16.45;;;13.10;99.90;;;;;;4987221;28;20410;-61
2021/09/03 01:38:56;;;;;;;26.65;16.70;;;13.00;99.90;;;;;;4986768;28;20030;-62
2021/09/03 01:41:21;;;;;;;25.02;16.73;;;13.00;99.90;;;;;;4985787;28;20045;-62
2021/09/03 01:43:47;;;;;;;24.95;16.15;;;12.90;99.90;;;;;;4986785;28;20022;-60
2021/09/03 01:46:12;;;;;;;28.30;17.35;;;12.90;99.90;;;;;;4981786;28;20080;-62
2021/09/03 01:48:38;;;;;;;30.77;16.48;;;12.80;99.90;;;;;;4981267;28;20557;-61
2021/09/03 01:51:04;;;;;;;35.15;16.98;;;12.80;99.90;;;;;;4989140;28;20041;-61
2021/09/03 01:53:29;;;;;;;31.55;18.48;;;12.80;99.90;;;;;;4987728;28;20026;-61
2021/09/03 01:55:55;;;;;;;26.30;16.25;;;12.80;99.90;;;;;;4987045;28;20093;-61
2021/09/03 01:58:20;;;;;;;33.72;16.58;;;12.70;99.90;;;;;;4983563;28;20102;-60
2021/09/03 02:00:46;;;;;;;26.92;17.20;;;12.70;99.90;;;;;;4988825;28;20057;-61
2021/09/03 02:03:13;;;;;;;27.92;17.52;;;12.60;99.90;;;;;;4987599;28;20061;-61
2021/09/03 02:05:39;;;;;;;31.50;17.77;;;12.60;99.90;;;;;;4987414;28;20105;-61
2021/09/03 02:08:06;;;;;;;26.75;17.60;;;12.60;99.90;;;;;;4985837;28;20054;-61
2021/09/03 02:10:32;;;;;;;26.15;16.50;;;12.60;99.90;;;;;;4984673;28;20037;-61
2021/09/03 02:12:57;;;;;;;28.20;17.60;;;12.60;99.90;;;;;;4986867;28;20022;-61
2021/09/03 02:15:24;;;;;;;31.25;17.75;;;12.50;99.90;;;;;;4986483;28;20088;-61
2021/09/03 02:17:49;;;;;;;27.70;18.27;;;12.50;99.90;;;;;;4988323;28;20093;-61
2021/09/03 02:20:15;;;;;;;30.85;17.83;;;12.50;99.90;;;;;;4987700;28;20454;-60
2021/09/03 02:22:40;;;;;;;26.25;16.92;;;12.50;99.90;;;;;;4986677;28;20041;-60
2021/09/03 02:25:06;;;;;;;24.63;16.50;;;12.50;99.90;;;;;;4986888;28;20030;-61
2021/09/03 02:27:32;;;;;;;29.05;17.23;;;12.40;99.90;;;;;;4987559;28;20027;-61
2021/09/03 02:29:57;;;;;;;29.30;17.80;;;12.40;99.90;;;;;;4986822;28;20034;-61
2021/09/03 02:32:23;;;;;;;33.20;17.52;;;12.40;99.90;;;;;;4989394;28;20023;-62
2021/09/03 02:34:48;;;;;;;27.33;17.30;;;12.40;99.90;;;;;;4987864;28;20041;-61
2021/09/03 02:37:15;;;;;;;35.83;17.17;;;12.40;99.90;;;;;;4984838;28;20122;-62
2021/09/03 02:39:40;;;;;;;35.30;18.08;;;12.40;99.90;;;;;;4984222;28;20031;-61
2021/09/03 02:42:06;;;;;;;29.90;16.13;;;12.40;99.90;;;;;;4985191;28;20080;-60
2021/09/03 02:44:32;;;;;;;24.95;16.60;;;12.50;99.90;;;;;;4982730;28;20018;-60
2021/09/03 02:46:58;;;;;;;25.85;13.77;;;12.50;99.90;;;;;;4985250;28;20046;-60
2021/09/03 02:49:23;;;;;;;21.42;14.32;;;12.50;99.90;;;;;;4986787;28;20062;-62
2021/09/03 02:51:49;;;;;;;24.05;15.68;;;12.40;99.90;;;;;;4981452;28;21049;-60
2021/09/03 02:54:14;;;;;;;26.58;15.20;;;12.40;99.90;;;;;;4986888;28;20483;-61
2021/09/03 02:56:40;;;;;;;22.25;15.23;;;12.30;99.90;;;;;;4983905;28;20176;-60
2021/09/03 02:59:05;;;;;;;24.63;15.77;;;12.30;99.90;;;;;;4968686;28;20472;-61
2021/09/03 03:01:31;;;;;;;22.50;14.93;;;12.30;99.90;;;;;;4987301;28;20054;-61
2021/09/03 03:03:56;;;;;;;27.80;14.95;;;12.40;99.90;;;;;;4987402;28;20034;-60
2021/09/03 03:06:22;;;;;;;28.23;15.90;;;12.40;99.90;;;;;;4985942;28;20081;-60
2021/09/03 03:08:47;;;;;;;26.58;15.35;;;12.30;99.90;;;;;;4986450;28;20124;-61
2021/09/03 03:11:13;;;;;;;23.95;15.15;;;12.30;99.90;;;;;;4986107;28;20039;-61
2021/09/03 03:13:46;;;;;;;25.45;14.63;;;12.30;99.90;;;;;;4985914;28;20035;-61
2021/09/03 03:16:12;;;;;;;27.50;15.32;;;12.20;99.90;;;;;;4989459;28;20050;-62
2021/09/03 03:18:38;;;;;;;21.70;15.30;;;12.10;99.90;;;;;;4989404;28;20037;-61
2021/09/03 03:21:03;;;;;;;27.35;16.92;;;12.10;99.90;;;;;;4992002;28;20034;-62
2021/09/03 03:23:29;;;;;;;34.60;17.35;;;12.10;99.90;;;;;;4991320;28;20030;-62
2021/09/03 03:25:55;;;;;;;30.63;16.20;;;12.10;99.90;;;;;;4990800;28;20034;-61
2021/09/03 03:28:21;;;;;;;27.77;15.88;;;12.00;99.90;;;;;;4988827;28;20398;-62
2021/09/03 03:30:47;;;;;;;27.83;15.45;;;12.10;99.90;;;;;;4989879;28;20030;-62
2021/09/03 03:33:12;;;;;;;23.90;15.60;;;12.10;99.90;;;;;;4992170;28;20077;-60
2021/09/03 03:35:38;;;;;;;23.92;15.20;;;12.10;99.90;;;;;;4990255;28;20041;-61
2021/09/03 03:38:04;;;;;;;32.13;15.27;;;12.00;99.90;;;;;;4990798;28;20034;-61
2021/09/03 03:40:30;;;;;;;30.08;16.85;;;12.00;99.90;;;;;;5010472;23;20022;-56
2021/09/03 03:42:55;;;;;;;30.58;15.40;;;11.90;99.90;;;;;;5032991;28;20052;-58
2021/09/03 03:45:21;;;;;;;29.48;14.02;;;11.90;99.90;;;;;;5035109;28;20404;-56
2021/09/03 03:47:46;;;;;;;31.08;15.98;;;12.00;99.90;;;;;;5034486;28;20029;-58
2021/09/03 03:50:12;;;;;;;28.88;14.70;;;12.00;99.90;;;;;;5036859;28;20026;-58
2021/09/03 03:52:39;;;;;;;30.35;15.52;;;12.00;99.90;;;;;;5029855;28;20515;-58
2021/09/03 03:55:05;;;;;;;22.65;14.00;;;11.90;99.90;;;;;;5036020;28;20037;-57
2021/09/03 03:57:30;;;;;;;25.58;14.77;;;11.90;99.90;;;;;;5030469;28;20500;-57
2021/09/03 03:59:56;;;;;;;24.20;14.95;;;11.90;99.90;;;;;;5029161;28;20040;-58
2021/09/03 04:02:21;;;;;;;35.72;15.68;;;11.90;99.90;;;;;;5031123;28;20028;-57
2021/09/03 04:04:47;;;;;;;28.00;15.10;;;11.80;99.90;;;;;;5031272;28;20124;-58
2021/09/03 04:07:13;;;;;;;29.80;15.70;;;11.80;99.90;;;;;;5027095;28;20478;-56
2021/09/03 04:09:38;;;;;;;23.73;14.85;;;11.80;99.90;;;;;;5029627;28;20095;-55
2021/09/03 04:12:04;;;;;;;26.40;14.77;;;11.80;99.90;;;;;;5028053;28;20026;-59
2021/09/03 04:14:30;;;;;;;25.42;15.35;;;11.80;99.90;;;;;;5031047;28;20030;-58
2021/09/03 04:16:55;;;;;;;21.85;13.55;;;11.80;99.90;;;;;;5032781;28;20433;-58
2021/09/03 04:19:21;;;;;;;19.88;13.25;;;11.80;99.90;;;;;;5030720;28;20472;-59
2021/09/03 04:21:46;;;;;;;24.52;13.38;;;11.90;99.90;;;;;;5031885;28;20052;-56
2021/09/03 04:24:12;;;;;;;22.45;13.80;;;11.80;99.90;;;;;;5032240;28;20047;-52
2021/09/03 04:26:37;;;;;;;17.95;12.77;;;11.80;99.90;;;;;;5027784;28;20029;-58
2021/09/03 04:29:03;;;;;;;22.42;13.73;;;11.70;99.90;;;;;;5030690;28;20053;-56
2021/09/03 04:31:29;;;;;;;28.45;14.52;;;11.70;99.90;;;;;;5031150;28;20104;-55
2021/09/03 04:33:54;;;;;;;23.55;15.98;;;11.60;99.90;;;;;;5029834;28;20038;-55
2021/09/03 04:36:20;;;;;;;22.90;14.15;;;11.60;99.90;;;;;;5027837;28;20029;-57
2021/09/03 04:38:45;;;;;;;21.98;13.70;;;11.60;99.90;;;;;;5030601;28;20029;-59
2021/09/03 04:41:11;;;;;;;25.27;13.90;;;11.60;99.90;;;;;;5031115;28;20164;-58
2021/09/03 04:43:37;;;;;;;21.20;13.98;;;11.60;99.90;;;;;;5032552;28;20532;-56
2021/09/03 04:46:02;;;;;;;25.85;14.88;;;11.60;99.90;;;;;;5029882;28;20484;-54
2021/09/03 04:48:28;;;;;;;24.17;13.82;;;11.50;99.90;;;;;;5030543;28;20033;-57
2021/09/03 04:50:53;;;;;;;25.33;14.80;;;11.60;99.90;;;;;;5030618;28;20017;-57
2021/09/03 04:53:19;;;;;;;24.25;14.50;;;11.50;99.90;;;;;;5029653;28;20492;-55
2021/09/03 04:55:45;;;;;;;22.38;13.45;;;11.60;99.90;;;;;;5031431;28;20035;-57
2021/09/03 04:58:10;;;;;;;24.35;14.80;;;11.60;99.90;;;;;;5033150;28;20112;-57
2021/09/03 05:00:36;;;;;;;25.38;13.98;;;11.50;99.90;;;;;;5030969;28;20056;-57
2021/09/03 05:03:02;;;;;;;30.58;15.10;;;11.50;99.90;;;;;;5029992;28;20038;-57
2021/09/03 05:05:27;;;;;;;23.90;15.07;;;11.50;99.90;;;;;;5028150;28;20253;-58
2021/09/03 05:07:53;;;;;;;23.67;14.90;;;11.50;99.90;;;;;;5028364;28;20022;-57
2021/09/03 05:10:18;;;;;;;26.98;16.13;;;11.50;99.90;;;;;;5028751;28;20389;-58
2021/09/03 05:12:44;;;;;;;29.67;17.52;;;11.50;99.90;;;;;;5031440;28;20029;-58
2021/09/03 05:15:15;;;;;;;22.88;14.70;;;11.50;99.90;;;;;;5027402;28;20136;-59
2021/09/03 05:17:50;;;;;;;21.83;14.43;;;11.50;99.90;;;;;;5027151;28;20026;-57
2021/09/03 05:20:17;;;;;;;26.02;14.38;;;11.60;99.90;;;;;;5024826;28;20056;-56
2021/09/03 05:22:43;;;;;;;28.02;16.70;;;11.70;99.90;;;;;;5028941;28;20048;-56
2021/09/03 05:25:09;;;;;;;28.50;14.95;;;11.70;99.90;;;;;;5020465;28;20037;-55
2021/09/03 05:27:36;;;;;;;29.80;15.55;;;11.70;99.90;;;;;;5026927;28;20033;-58
2021/09/03 05:30:03;;;;;;;29.27;16.17;;;11.70;99.90;;;;;;5025166;28;20040;-58
2021/09/03 05:32:28;;;;;;;25.27;14.70;;;11.70;99.90;;;;;;5022067;28;20026;-57
2021/09/03 05:34:54;;;;;;;25.33;15.82;;;11.70;99.90;;;;;;5018215;28;20080;-56
2021/09/03 05:37:20;;;;;;;22.38;14.88;;;11.70;99.90;;;;;;5018701;28;20041;-57
2021/09/03 05:39:45;;;;;;;23.05;15.68;;;11.70;99.90;;;;;;5021910;28;20036;-57
2021/09/03 05:42:11;;;;;;;28.30;16.13;;;11.70;99.90;;;;;;5025205;28;20036;-57
2021/09/03 05:44:37;;;;;;;25.77;15.40;;;11.70;99.90;;;;;;5030225;28;20033;-57
2021/09/03 05:47:03;;;;;;;27.52;16.60;;;11.80;99.90;;;;;;5027183;28;20025;-58
2021/09/03 05:49:29;;;;;;;24.45;15.60;;;11.90;99.90;;;;;;5026329;28;20118;-57
2021/09/03 05:51:54;;;;;;;26.58;15.75;;;11.90;99.90;;;;;;5018415;28;20029;-53
2021/09/03 05:54:20;;;;;;;29.25;16.38;;;12.00;99.90;;;;;;5016947;28;21950;-54
2021/09/03 05:56:45;;;;;;;28.77;17.05;;;12.00;99.90;;;;;;5018474;28;20466;-61
2021/09/03 05:59:11;;;;;;;28.65;15.30;;;12.10;99.90;;;;;;5018645;28;20545;-61
2021/09/03 06:01:36;;;;;;;24.27;16.50;;;12.10;99.90;;;;;;5015870;28;20037;-58
2021/09/03 06:04:02;;;;;;;26.25;17.10;;;12.20;99.90;;;;;;5012945;28;20052;-60
2021/09/03 06:06:28;;;;;;;31.17;17.20;;;12.20;99.90;;;;;;5018009;28;20839;-59
2021/09/03 06:08:53;;;;;;;26.30;15.50;;;12.30;99.90;;;;;;5020979;28;20412;-57
2021/09/03 06:11:21;;;;;;;31.42;15.25;;;12.40;99.90;;;;;;5020980;28;20061;-57
2021/09/03 06:13:47;;;;;;;30.73;15.95;;;12.50;99.90;;;;;;5030272;28;20230;-59
2021/09/03 06:16:13;;;;;;;29.00;17.55;;;12.50;99.90;;;;;;5029411;28;20111;-59
2021/09/03 06:18:39;;;;;;;29.77;16.50;;;12.60;99.90;;;;;;5032132;28;20033;-58
2021/09/03 06:21:04;;;;;;;32.30;19.98;;;12.70;99.90;;;;;;5028083;28;20034;-61
2021/09/03 06:23:30;;;;;;;38.28;19.30;;;12.80;99.90;;;;;;5025017;28;20067;-56
2021/09/03 06:25:55;;;;;;;31.10;18.20;;;12.80;99.90;;;;;;5023399;28;20111;-58
2021/09/03 06:28:21;;;;;;;40.63;19.60;;;12.90;99.90;;;;;;5028158;28;20064;-60
2021/09/03 06:30:46;;;;;;;27.73;18.27;;;13.00;99.90;;;;;;5030333;28;20029;-61
2021/09/03 06:33:12;;;;;;;39.38;20.73;;;13.10;99.90;;;;;;5032756;28;20025;-61
2021/09/03 06:35:38;;;;;;;35.13;20.10;;;13.10;99.90;;;;;;5032457;28;20021;-56
2021/09/03 06:38:03;;;;;;;38.33;21.58;;;13.20;99.90;;;;;;5024880;28;20061;-61
2021/09/03 06:40:29;;;;;;;38.00;22.20;;;13.30;99.90;;;;;;5030840;28;20068;-57
2021/09/03 06:42:54;;;;;;;41.05;21.67;;;13.40;99.90;;;;;;5027381;28;20065;-57
2021/09/03 06:45:20;;;;;;;48.95;24.48;;;13.50;99.90;;;;;;5032028;28;20100;-58
2021/09/03 06:47:45;;;;;;;41.72;22.45;;;13.50;99.90;;;;;;5023383;28;20110;-56
2021/09/03 06:50:11;;;;;;;38.15;23.95;;;13.60;99.90;;;;;;5028600;28;20108;-53
2021/09/03 06:52:37;;;;;;;39.17;22.30;;;13.70;99.90;;;;;;5030628;28;20504;-54
2021/09/03 06:55:03;;;;;;;36.97;23.08;;;13.80;99.90;;;;;;5030648;28;20039;-60
2021/09/03 06:57:29;;;;;;;42.60;22.83;;;13.80;99.90;;;;;;5036054;28;20090;-59
2021/09/03 06:59:55;;;;;;;44.03;21.42;;;13.90;99.90;;;;;;5031769;28;20485;-64
2021/09/03 07:02:21;;;;;;;33.28;19.58;;;13.90;99.90;;;;;;5029349;28;20045;-60
2021/09/03 07:04:47;;;;;;;35.95;21.70;;;14.00;99.90;;;;;;5024609;28;20034;-65
2021/09/03 07:07:24;;;;;;;35.15;20.27;;;14.10;99.90;;;;;;5024022;28;20152;-58
2021/09/03 07:09:50;;;;;;;33.38;20.02;;;14.10;99.90;;;;;;5040116;28;20125;-59
2021/09/03 07:12:16;;;;;;;34.60;19.17;;;14.20;99.90;;;;;;5026281;28;20033;-60
2021/09/03 07:14:41;;;;;;;29.63;18.52;;;14.30;99.90;;;;;;5031899;28;20436;-61
2021/09/03 07:17:07;;;;;;;38.45;19.10;;;14.30;99.90;;;;;;5031725;28;20041;-58
2021/09/03 07:19:34;;;;;;;27.27;17.75;;;14.40;99.90;;;;;;5029975;28;20067;-59
2021/09/03 07:22:01;;;;;;;34.38;18.25;;;14.50;99.90;;;;;;5023676;28;20037;-60
2021/09/03 07:24:27;;;;;;;29.35;17.35;;;14.50;99.90;;;;;;5007286;28;20037;-59
2021/09/03 07:26:52;;;;;;;34.47;17.77;;;14.60;99.90;;;;;;5004734;28;20029;-56
2021/09/03 07:29:18;;;;;;;30.17;18.45;;;14.70;99.90;;;;;;5025822;28;20029;-59
2021/09/03 07:31:44;;;;;;;27.00;18.40;;;14.70;99.90;;;;;;5021413;28;20034;-61
2021/09/03 07:34:10;;;;;;;24.67;16.33;;;14.80;99.90;;;;;;5021724;28;20152;-64
2021/09/03 07:36:36;;;;;;;27.23;16.67;;;14.90;99.90;;;;;;5018517;28;20120;-59
2021/09/03 07:39:03;;;;;;;26.42;16.63;;;15.00;99.90;;;;;;5023403;28;20083;-64
2021/09/03 07:41:28;;;;;;;32.83;15.60;;;15.10;99.90;;;;;;5006500;28;20929;-64
2021/09/03 07:43:54;;;;;;;24.75;15.65;;;15.10;99.90;;;;;;5023428;28;20032;-60
2021/09/03 07:46:23;;;;;;;22.73;15.10;;;15.20;99.90;;;;;;5021388;28;20451;-59
2021/09/03 07:48:52;;;;;;;29.30;14.93;;;15.30;99.90;;;;;;5022820;28;20511;-59
2021/09/03 07:51:18;;;;;;;25.92;14.75;;;15.40;99.90;;;;;;5023145;28;20049;-60
2021/09/03 07:53:47;;;;;;;27.20;14.93;;;15.50;99.90;;;;;;5022341;28;20118;-64
2021/09/03 07:56:12;;;;;;;24.35;14.45;;;15.50;99.90;;;;;;5022481;28;20146;-59
2021/09/03 07:58:38;;;;;;;21.50;14.48;;;15.60;99.90;;;;;;5024000;28;20076;-65
2021/09/03 08:01:07;;;;;;;23.40;14.80;;;15.70;99.90;;;;;;5021837;28;20036;-62
2021/09/03 08:03:33;;;;;;;31.10;14.57;;;15.80;99.90;;;;;;5023075;28;20033;-59
2021/09/03 08:05:59;;;;;;;22.08;13.68;;;15.80;99.90;;;;;;5021421;28;20052;-58
2021/09/03 08:08:24;;;;;;;30.08;14.77;;;15.90;99.90;;;;;;5026992;28;20032;-59
2021/09/03 08:10:50;;;;;;;23.05;14.90;;;16.10;99.90;;;;;;5027839;28;20147;-60
2021/09/03 08:13:16;;;;;;;25.98;14.88;;;16.20;99.90;;;;;;5021669;28;20061;-61
2021/09/03 08:15:47;;;;;;;26.40;13.43;;;16.30;99.90;;;;;;5024228;28;20025;-65
2021/09/03 08:18:16;;;;;;;22.38;13.05;;;16.40;99.90;;;;;;5022156;28;20615;-61
2021/09/03 08:20:45;;;;;;;23.00;13.55;;;16.50;99.90;;;;;;5025807;28;20492;-58
2021/09/03 08:23:11;;;;;;;20.27;13.57;;;16.60;99.90;;;;;;5032344;28;20454;-61
2021/09/03 08:25:37;;;;;;;24.77;13.40;;;16.60;99.90;;;;;;5030723;28;20025;-57
2021/09/03 08:28:03;;;;;;;25.08;13.88;;;16.70;99.90;;;;;;5029079;28;20074;-59
2021/09/03 08:30:29;;;;;;;22.70;13.80;;;16.80;99.90;;;;;;5022199;28;20025;-57
2021/09/03 08:32:55;;;;;;;24.98;12.88;;;16.90;99.90;;;;;;5021743;28;20965;-58
2021/09/03 08:35:20;;;;;;;23.95;14.55;;;17.00;99.90;;;;;;5020701;28;20029;-61
2021/09/03 08:37:46;;;;;;;31.75;13.52;;;17.10;99.90;;;;;;5018017;28;20052;-58
2021/09/03 08:40:13;;;;;;;20.92;13.93;;;17.20;99.90;;;;;;5021905;28;20534;-58
2021/09/03 08:42:40;;;;;;;25.25;14.98;;;17.30;99.90;;;;;;5016544;28;20037;-57
2021/09/03 08:45:09;;;;;;;28.10;15.82;;;17.40;99.90;;;;;;5021034;28;20030;-57
2021/09/03 08:47:37;;;;;;;27.25;13.68;;;17.50;99.90;;;;;;5018995;28;20053;-62
2021/09/03 08:50:02;;;;;;;24.27;12.82;;;17.60;99.90;;;;;;5020179;28;20029;-57
2021/09/03 08:52:28;;;;;;;23.70;12.95;;;17.70;99.90;;;;;;5018856;28;21102;-55
2021/09/03 08:54:54;;;;;;;30.27;13.77;;;17.80;99.90;;;;;;5018077;28;20552;-58
2021/09/03 08:57:19;;;;;;;26.80;13.23;;;17.90;99.90;;;;;;5022072;28;20113;-57
2021/09/03 08:59:45;;;;;;;22.95;12.65;;;18.00;99.90;;;;;;5021058;28;20083;-56
2021/09/03 09:02:19;;;;;;;19.48;12.90;;;18.10;99.90;;;;;;5024877;28;20039;-56
2021/09/03 09:04:50;;;;;;;19.00;12.50;;;18.30;99.90;;;;;;5018397;28;20037;-57
2021/09/03 09:07:16;;;;;;;20.85;13.10;;;18.40;99.90;;;;;;5016718;28;20029;-62
2021/09/03 09:09:44;;;;;;;22.95;13.20;;;18.50;99.90;;;;;;5016494;28;20096;-58
2021/09/03 09:12:15;;;;;;;19.70;12.93;;;18.60;99.90;;;;;;5017529;28;20030;-57
2021/09/03 09:15:07;;;;;;;21.98;12.77;;;18.70;99.90;;;;;;5022433;28;20025;-56
2021/09/03 09:17:42;;;;;;;19.95;12.88;;;18.90;99.90;;;;;;5026578;28;20036;-60
2021/09/03 09:20:10;;;;;;;22.98;12.90;;;19.10;99.90;;;;;;5027213;28;20041;-55
2021/09/03 09:22:58;;;;;;;79.95;45.88;;;19.20;99.90;;;;;;5024903;28;20050;-57
2021/09/03 09:25:29;;;;;;;24.10;13.70;;;19.30;99.90;;;;;;5022636;28;20049;-62
2021/09/03 09:28:12;;;;;;;22.90;13.57;;;19.50;99.90;;;;;;5019870;28;20076;-54
2021/09/03 09:30:42;;;;;;;18.90;11.88;;;19.60;99.90;;;;;;5022746;28;20025;-58
2021/09/03 09:33:21;;;;;;;17.80;10.88;;;19.80;99.90;;;;;;5021753;28;20033;-59
2021/09/03 09:35:50;;;;;;;21.90;12.32;;;19.90;99.90;;;;;;5019805;28;20034;-58
2021/09/03 09:38:19;;;;;;;20.40;11.30;;;20.10;99.90;;;;;;5023537;28;20052;-60
2021/09/03 09:40:46;;;;;;;20.13;11.90;;;20.20;99.90;;;;;;5028995;28;20034;-58
2021/09/03 09:43:48;;;;;;;19.60;11.00;;;20.40;99.90;;;;;;5029844;28;20105;-58
2021/09/03 09:46:23;;;;;;;15.20;10.40;;;20.50;99.90;;;;;;5027568;28;20026;-58
2021/09/03 09:48:49;;;;;;;16.95;10.50;;;20.60;99.90;;;;;;5024646;28;20022;-60
2021/09/03 09:51:29;;;;;;;14.88;10.25;;;20.70;99.90;;;;;;5021261;28;20485;-60
2021/09/03 09:54:04;;;;;;;17.02;10.90;;;20.80;99.90;;;;;;5022758;28;20112;-64
2021/09/03 09:56:32;;;;;;;16.20;10.00;;;21.00;99.90;;;;;;5012964;28;20176;-56
2021/09/03 09:59:00;;;;;;;17.77;10.25;;;21.10;99.90;;;;;;5030228;28;20095;-58
2021/09/03 10:01:26;;;;;;;16.33;9.75;;;21.40;99.90;;;;;;5028115;28;20030;-57
2021/09/03 10:03:53;;;;;;;17.60;10.63;;;21.50;99.90;;;;;;5027377;28;20035;-57
2021/09/03 10:06:21;;;;;;;13.98;9.75;;;21.70;99.90;;;;;;5021286;28;20029;-57
2021/09/03 10:08:49;;;;;;;14.25;9.10;;;21.90;99.90;;;;;;5028540;28;20031;-58
2021/09/03 10:11:20;;;;;;;19.17;10.77;;;22.10;99.90;;;;;;5029234;28;20091;-59
2021/09/03 10:13:46;;;;;;;16.90;9.88;;;22.30;99.90;;;;;;5027066;28;20108;-60
2021/09/03 10:16:12;;;;;;;21.85;9.75;;;22.30;99.90;;;;;;5026228;28;20053;-56
2021/09/03 10:18:40;;;;;;;15.68;9.65;;;22.50;99.90;;;;;;5024581;28;20026;-57
2021/09/03 10:21:06;;;;;;;16.25;9.60;;;22.70;99.90;;;;;;5023655;28;20029;-60
2021/09/03 10:23:47;;;;;;;23.55;10.77;;;22.90;99.90;;;;;;5024732;28;20025;-57
2021/09/03 10:26:14;;;;;;;18.48;9.30;;;22.90;99.90;;;;;;5025751;28;20064;-53
2021/09/03 10:28:40;;;;;;;18.98;9.98;;;23.10;99.90;;;;;;5026293;28;20029;-58
2021/09/03 10:31:07;;;;;;;17.20;9.02;;;23.30;99.90;;;;;;5021517;28;20025;-57
2021/09/03 10:33:35;;;;;;;16.50;8.73;;;23.50;99.90;;;;;;5014331;28;20026;-58
2021/09/03 10:36:00;;;;;;;16.08;9.40;;;23.70;99.90;;;;;;5013968;28;20037;-59
2021/09/03 10:38:31;;;;;;;17.08;8.68;;;23.90;99.90;;;;;;5021704;28;20052;-56
2021/09/03 10:40:57;;;;;;;17.67;8.77;;;24.00;99.90;;;;;;5021349;28;20040;-59
2021/09/03 10:43:45;;;;;;;18.52;10.18;;;24.10;99.90;;;;;;5024678;28;20041;-57
2021/09/03 10:46:13;;;;;;;18.67;8.32;;;24.20;99.90;;;;;;5017546;28;20026;-59
2021/09/03 10:48:39;;;;;;;14.23;9.52;;;24.30;99.90;;;;;;5018137;28;20047;-60
2021/09/03 10:51:05;;;;;;;19.08;8.82;;;24.40;99.90;;;;;;5021499;28;20030;-55
2021/09/03 10:53:41;;;;;;;14.40;8.25;;;24.40;99.90;;;;;;5018836;28;20052;-57
2021/09/03 10:56:18;;;;;;;15.48;8.57;;;24.30;99.90;;;;;;5026003;28;20095;-58
2021/09/03 10:58:58;;;;;;;13.27;7.70;;;24.50;99.90;;;;;;5025109;28;20021;-60
2021/09/03 11:01:27;;;;;;;12.32;7.50;;;24.60;99.90;;;;;;5016592;28;20048;-58
2021/09/03 11:04:05;;;;;;;13.38;7.85;;;24.80;99.90;;;;;;5018274;28;20024;-58
2021/09/03 11:07:02;;;;;;;11.55;7.68;;;24.90;99.90;;;;;;5014948;28;20038;-61
2021/09/03 11:09:29;;;;;;;13.68;7.65;;;25.10;99.90;;;;;;5017628;28;20168;-61
2021/09/03 11:12:16;;;;;;;11.30;6.95;;;25.00;99.90;;;;;;5017662;28;20461;-60
2021/09/03 11:14:41;;;;;;;13.02;7.03;;;25.20;99.90;;;;;;5019426;28;20018;-59
2021/09/03 11:17:17;;;;;;;13.25;7.90;;;25.10;99.90;;;;;;5018669;28;20029;-57
2021/09/03 11:19:47;;;;;;;13.70;8.20;;;25.20;99.90;;;;;;5017863;28;20079;-59
2021/09/03 11:22:14;;;;;;;11.80;8.15;;;25.10;99.90;;;;;;5019645;28;20033;-61
2021/09/03 11:24:44;;;;;;;8.88;5.90;;;25.20;99.90;;;;;;5015119;28;20038;-56
2021/09/03 11:27:21;;;;;;;8.70;6.68;;;25.30;99.90;;;;;;5019575;28;20571;-59
2021/09/03 11:29:50;;;;;;;9.55;5.68;;;25.40;99.90;;;;;;5016986;28;20025;-61
2021/09/03 11:32:20;;;;;;;10.15;6.38;;;25.70;99.90;;;;;;5024122;28;20052;-60
2021/09/03 11:34:46;;;;;;;8.90;6.53;;;25.70;99.90;;;;;;5018021;28;20038;-58
2021/09/03 11:37:28;;;;;;;10.27;6.32;;;25.80;99.90;;;;;;5022301;28;20091;-58
2021/09/03 11:39:57;;;;;;;15.13;7.15;;;25.90;99.90;;;;;;5022509;28;20033;-61
2021/09/03 11:42:27;;;;;;;13.35;6.60;;;25.90;99.90;;;;;;5017735;28;20038;-61
2021/09/03 11:44:55;;;;;;;14.57;8.00;;;26.00;99.90;;;;;;5021291;28;20059;-58
2021/09/03 11:47:36;;;;;;;10.50;7.25;;;26.10;99.90;;;;;;5023098;28;20121;-59
2021/09/03 11:50:11;;;;;;;12.15;7.47;;;25.90;99.90;;;;;;5021761;28;20105;-60
2021/09/03 11:52:38;;;;;;;11.02;6.55;;;26.10;99.90;;;;;;5023035;28;20048;-58
2021/09/03 11:55:07;;;;;;;10.88;7.22;;;26.30;99.90;;;;;;5028154;28;20044;-58
2021/09/03 11:58:02;;;;;;;9.73;7.07;;;26.40;99.90;;;;;;5027540;28;20025;-61
2021/09/03 12:00:40;;;;;;;11.65;7.00;;;26.50;99.90;;;;;;5023523;28;20041;-59
2021/09/03 12:03:33;;;;;;;11.38;6.60;;;26.40;99.90;;;;;;5028835;28;20025;-57
2021/09/03 12:06:01;;;;;;;11.75;7.72;;;26.30;99.90;;;;;;5022833;28;20045;-61
2021/09/03 12:08:35;;;;;;;9.93;7.03;;;26.30;99.90;;;;;;5030076;28;20497;-62
2021/09/03 12:11:32;;;;;;;11.23;7.45;;;26.40;99.90;;;;;;5026440;28;20061;-63
2021/09/03 12:13:58;;;;;;;15.25;6.57;;;26.40;99.90;;;;;;5026008;28;20032;-63
2021/09/03 12:16:30;;;;;;;9.63;6.75;;;26.60;99.90;;;;;;5029759;28;20033;-59
2021/09/03 12:18:58;;;;;;;10.45;6.90;;;26.50;99.90;;;;;;5027364;28;20095;-61
2021/09/03 12:21:40;;;;;;;10.40;6.90;;;26.50;99.90;;;;;;5027477;28;20037;-59
2021/09/03 12:24:09;;;;;;;9.20;6.57;;;26.60;99.90;;;;;;5022282;28;20036;-61
2021/09/03 12:26:37;;;;;;;11.73;7.38;;;26.90;99.90;;;;;;5023007;28;20022;-61
2021/09/03 12:29:07;;;;;;;11.38;6.70;;;27.00;99.90;;;;;;5025149;28;20561;-57
2021/09/03 12:31:32;;;;;;;14.82;6.63;;;27.00;99.90;;;;;;5026868;28;20029;-59